Aeroporto :
LOGIN :

Iscrizione | Disclaimer

   EN    FR    IT 

 










Sommario :    VFR   VFR Marginale   IFR   IFR Intensivo   IFR Molto Intensivo
Visibilità : 
Base nubi : 
>= 8 km
>= 3000ft
5 / 8 km
1000 / 3000 ft
1500m / 5 km
500 / 1000 ft
800 / 1500m
200 / 500 ft
< 800m
< 200 ft
Simboli :   Temporali  Nebbia  Neve Forte  Precipitazioni Forti  Vento > 20 kt
SIGMETs :   Varie  Temporali  Ghiacco  Turbolenza  Onda orograficha  Ceneri Vulcaniche






- Altitudine del aeroporto : 38 ft
- Codice IATA : TRE


EGPU - Tiree

ULTIMO METAR :
  • 160650Z AUTO 21014KT 180V240 9999 RA FEW021/// BKN030/// 06/05 Q0982

METARs OBSOLETI :
  • 160620Z AUTO 18017KT 9999 FEW009/// SCT015/// 07/06 Q0982 RERA
  • 160550Z AUTO 19018KT 9999 -DZ BKN011/// SCT026/// 06/05 Q0982
  • 160520Z AUTO 19020KT 160V220 9999 SCT016/// SCT021/// 06/05 Q0982 RERA
  • 160450Z AUTO 20019KT 9999 FEW015/// SCT023/// 06/04 Q0983 RERA
  • 160420Z AUTO 20018KT 170V240 9999 -RA BKN014/// 06/04 Q0983

TAF TAF EGPU
Valido dal 16 a 06 ore il 16 a 15 ore UTC


160458Z 1606/1615 19017KT 9999 SCT025
BECMG 1606/1609 24020G30KT
TEMPO 1606/1615 6000 SHRA BKN012
PROB30
TEMPO 1606/1615 3000 +SHRA SHRAGS BKN008



MetMap, La meteo Aeronautica in un colpo d'occhio ! - Copyright ORBIFLY Dicembre 2007 - Disclaimer

ORBIFLY MET'MAP TEAM :

Programmazione e sviluppo : Alexandra Zaïnal
Concezione : Baudouin d'Aumeries
Aiuto per la programmazione : Marc-Olivier Méhu
Supporto tecnico e logistico : Manuel Goepfert
Aiuto per la traduzione : Arnaldo La Scala

Contatto : metmap@orbifly.com




FONTI E CREDITI :

   NOAA